createdAt,value
2022-09-20T00:02:02.682Z,8.98
2022-09-20T00:04:30.400Z,8.93
2022-09-20T00:06:57.984Z,8.89
2022-09-20T00:09:25.557Z,8.88
2022-09-20T00:11:53.111Z,8.85
2022-09-20T00:14:20.680Z,8.81
2022-09-20T00:16:49.641Z,8.79
2022-09-20T00:19:20.040Z,8.76
2022-09-20T00:21:47.656Z,8.77
2022-09-20T00:24:16.078Z,8.75
2022-09-20T00:26:43.721Z,8.75
2022-09-20T00:29:12.707Z,8.79
2022-09-20T00:31:42.723Z,8.81
2022-09-20T00:34:29.858Z,8.84
2022-09-20T00:36:57.428Z,8.84
2022-09-20T00:39:25.060Z,8.83
2022-09-20T00:41:52.646Z,8.84
2022-09-20T00:44:47.807Z,8.82
2022-09-20T00:47:22.793Z,8.81
2022-09-20T00:49:55.733Z,8.79
2022-09-20T00:52:24.136Z,8.81
2022-09-20T00:54:51.875Z,8.81
2022-09-20T00:57:19.799Z,8.81
2022-09-20T00:59:48.631Z,8.83
2022-09-20T01:02:18.254Z,8.83
2022-09-20T01:04:47.060Z,8.84
2022-09-20T01:07:19.362Z,8.84
2022-09-20T01:09:47.207Z,8.80
2022-09-20T01:12:17.459Z,8.83
2022-09-20T01:14:45.991Z,8.83
2022-09-20T01:17:14.010Z,8.86
2022-09-20T01:19:49.632Z,8.86
2022-09-20T01:22:26.674Z,8.60
2022-09-20T01:25:00.515Z,8.52
2022-09-20T01:27:42.301Z,8.55
2022-09-20T01:30:11.281Z,8.55
2022-09-20T01:33:07.354Z,8.52
2022-09-20T01:35:36.635Z,8.52
2022-09-20T01:38:14.787Z,8.55
2022-09-20T01:40:49.149Z,8.48
2022-09-20T01:43:22.587Z,8.46
2022-09-20T01:45:50.785Z,8.41
2022-09-20T01:48:26.992Z,8.38
2022-09-20T01:51:13.491Z,8.26
2022-09-20T01:54:19.683Z,8.23
2022-09-20T01:57:22.636Z,8.14
2022-09-20T02:00:05.678Z,8.03
2022-09-20T02:03:05.389Z,7.96
2022-09-20T02:05:47.715Z,7.92
2022-09-20T02:08:28.120Z,7.91
2022-09-20T02:11:11.066Z,7.90
2022-09-20T02:14:06.422Z,7.93
2022-09-20T02:16:47.324Z,7.90
2022-09-20T02:19:41.001Z,7.85
2022-09-20T02:22:32.672Z,7.79
2022-09-20T02:25:10.399Z,7.72
2022-09-20T02:27:46.620Z,7.69
2022-09-20T02:30:25.438Z,7.64
2022-09-20T02:33:08.102Z,7.56
2022-09-20T02:35:42.844Z,7.53
2022-09-20T02:38:19.325Z,7.54
2022-09-20T02:40:58.044Z,7.45
2022-09-20T02:43:32.417Z,7.41
2022-09-20T02:46:03.038Z,7.35
2022-09-20T02:48:39.155Z,7.32
2022-09-20T02:51:10.799Z,7.34
2022-09-20T02:53:42.151Z,7.35
2022-09-20T02:56:14.213Z,7.36
2022-09-20T02:58:49.663Z,7.38
2022-09-20T03:01:23.862Z,7.35
2022-09-20T03:03:58.479Z,7.38
2022-09-20T03:06:32.598Z,7.37
2022-09-20T03:09:06.186Z,7.39
2022-09-20T03:11:38.461Z,7.39
2022-09-20T03:14:15.003Z,7.39
2022-09-20T03:16:53.789Z,7.40
2022-09-20T03:19:35.121Z,7.40
2022-09-20T03:22:10.280Z,7.45
2022-09-20T03:24:45.126Z,7.49
2022-09-20T03:27:18.684Z,7.53
2022-09-20T03:29:59.395Z,7.55
2022-09-20T03:32:42.204Z,7.58
2022-09-20T03:35:25.921Z,7.61
2022-09-20T03:38:05.037Z,7.62
2022-09-20T03:41:03.496Z,7.65
2022-09-20T03:43:43.801Z,7.70
2022-09-20T03:46:18.560Z,7.74
2022-09-20T03:49:15.724Z,7.75
2022-09-20T03:51:50.689Z,7.73
2022-09-20T03:54:49.925Z,7.75
2022-09-20T03:57:56.550Z,7.76
2022-09-20T04:00:26.511Z,7.76
2022-09-20T04:03:04.469Z,7.74
2022-09-20T04:05:41.111Z,7.77
2022-09-20T04:08:19.315Z,7.79
2022-09-20T04:10:54.982Z,7.79
2022-09-20T04:13:33.229Z,7.77
2022-09-20T04:16:10.681Z,7.73
2022-09-20T04:18:42.333Z,7.69
2022-09-20T04:21:15.689Z,7.68
2022-09-20T04:23:50.686Z,7.68
2022-09-20T04:26:23.471Z,7.70
2022-09-20T04:28:55.155Z,7.72
2022-09-20T04:35:20.139Z,7.73
2022-09-20T04:37:48.120Z,7.72
2022-09-20T04:40:35.495Z,7.74
2022-09-20T04:43:24.292Z,7.73
2022-09-20T04:46:16.420Z,7.75
2022-09-20T04:49:13.200Z,7.75
2022-09-20T04:52:00.726Z,7.71
2022-09-20T04:55:09.655Z,7.72
2022-09-20T04:58:13.665Z,7.72
2022-09-20T05:00:58.333Z,7.72
2022-09-20T05:03:42.938Z,7.72
2022-09-20T05:06:30.391Z,7.71
2022-09-20T05:09:20.603Z,7.66
2022-09-20T05:12:19.804Z,7.62
2022-09-20T05:15:09.616Z,7.60
2022-09-20T05:17:45.762Z,7.57
2022-09-20T05:20:47.937Z,7.53
2022-09-20T05:23:44.320Z,7.52
2022-09-20T05:26:15.565Z,7.55
2022-09-20T05:28:54.356Z,7.54
2022-09-20T05:31:28.235Z,7.57
2022-09-20T05:34:01.429Z,7.63
2022-09-20T05:36:34.836Z,7.70
2022-09-20T05:39:11.424Z,7.75
2022-09-20T05:41:42.671Z,7.80
2022-09-20T05:44:17.721Z,7.87
2022-09-20T05:46:54.734Z,7.91
2022-09-20T05:49:31.851Z,7.96
2022-09-20T05:52:12.688Z,8.00
2022-09-20T05:55:01.303Z,8.05
2022-09-20T05:57:41.090Z,8.06
2022-09-20T06:00:12.390Z,8.09
2022-09-20T06:02:48.446Z,8.08
2022-09-20T06:05:22.852Z,8.14
2022-09-20T06:08:29.281Z,8.20
2022-09-20T06:11:05.240Z,8.25
2022-09-20T06:13:45.437Z,8.27
2022-09-20T06:16:15.470Z,8.30
2022-09-20T06:18:48.584Z,8.36
2022-09-20T06:21:26.533Z,8.40
2022-09-20T06:23:58.178Z,8.44
2022-09-20T06:26:28.408Z,8.48
2022-09-20T06:28:59.273Z,8.51
2022-09-20T06:31:26.904Z,8.56
2022-09-20T06:33:57.399Z,8.62
2022-09-20T06:36:46.957Z,8.67
2022-09-20T06:39:38.256Z,8.69
2022-09-20T06:42:06.315Z,8.75
2022-09-20T06:44:33.902Z,8.79
2022-09-20T06:47:01.775Z,8.83
2022-09-20T06:49:29.380Z,8.87
2022-09-20T06:51:58.774Z,8.90
2022-09-20T06:54:27.087Z,8.95
2022-09-20T06:56:55.322Z,8.97
2022-09-20T06:59:23.077Z,9.01
2022-09-20T07:01:50.828Z,9.05
2022-09-20T07:04:18.490Z,9.07
2022-09-20T07:06:46.081Z,9.07
2022-09-20T07:09:15.059Z,9.07
2022-09-20T07:11:43.083Z,9.06
2022-09-20T07:14:10.761Z,9.04
2022-09-20T07:16:39.057Z,9.04
2022-09-20T07:19:06.976Z,8.93
2022-09-20T07:21:49.009Z,8.87
2022-09-20T07:24:18.210Z,8.92
2022-09-20T07:26:56.395Z,8.89
2022-09-20T07:29:24.431Z,8.88
2022-09-20T07:31:52.276Z,8.66
2022-09-20T07:34:20.478Z,8.60
2022-09-20T07:36:48.300Z,8.67
2022-09-20T07:39:16.018Z,8.70
2022-09-20T07:41:46.576Z,8.71
2022-09-20T07:44:24.886Z,8.79
2022-09-20T07:46:54.025Z,8.83
2022-09-20T07:49:22.537Z,8.89
2022-09-20T07:51:50.583Z,8.97
2022-09-20T07:54:18.290Z,9.02
2022-09-20T07:56:48.013Z,9.08
2022-09-20T07:59:16.014Z,9.22
2022-09-20T08:01:44.211Z,9.29
2022-09-20T08:04:11.951Z,9.26
2022-09-20T08:06:41.049Z,9.19
2022-09-20T08:09:11.362Z,9.27
2022-09-20T08:11:40.064Z,9.37
2022-09-20T08:14:09.549Z,9.42
2022-09-20T08:16:39.596Z,9.47
2022-09-20T08:19:07.283Z,9.48
2022-09-20T08:21:38.053Z,9.51
2022-09-20T08:24:06.111Z,9.53
2022-09-20T08:26:35.717Z,9.51
2022-09-20T08:29:03.554Z,9.52
2022-09-20T08:31:34.447Z,9.51
2022-09-20T08:34:03.736Z,9.50
2022-09-20T08:36:36.430Z,9.48
2022-09-20T08:41:56.659Z,9.27
2022-09-20T08:44:27.355Z,9.24
2022-09-20T08:47:06.055Z,9.31
2022-09-20T08:49:34.535Z,9.37
2022-09-20T08:52:03.297Z,9.34
2022-09-20T08:54:33.240Z,9.34
2022-09-20T08:57:05.291Z,9.30
2022-09-20T08:59:33.689Z,9.23
2022-09-20T09:02:02.717Z,9.18
2022-09-20T09:04:36.555Z,9.30
2022-09-20T09:07:04.890Z,9.35
2022-09-20T09:09:37.793Z,9.43
2022-09-20T09:12:05.904Z,9.50
2022-09-20T09:14:52.204Z,9.59
2022-09-20T09:17:27.335Z,9.56
2022-09-20T09:19:56.207Z,9.66
2022-09-20T09:22:26.577Z,9.67
2022-09-20T09:25:24.835Z,9.61
2022-09-20T09:27:54.873Z,9.67
2022-09-20T09:30:24.673Z,9.59
2022-09-20T09:32:54.213Z,9.70
2022-09-20T09:35:29.243Z,9.60
2022-09-20T09:37:59.218Z,9.72
2022-09-20T09:40:27.476Z,9.88
2022-09-20T09:42:56.913Z,9.99
2022-09-20T09:45:31.521Z,10.17
2022-09-20T09:48:02.221Z,10.34
2022-09-20T09:50:31.810Z,10.37
2022-09-20T09:53:02.820Z,10.49
2022-09-20T09:55:39.481Z,10.50
2022-09-20T09:58:14.378Z,10.57
2022-09-20T10:00:46.563Z,10.47
2022-09-20T10:03:32.176Z,10.29
2022-09-20T10:06:08.822Z,10.17
2022-09-20T10:08:52.068Z,10.13
2022-09-20T10:11:28.566Z,10.32
2022-09-20T10:14:03.612Z,10.22
2022-09-20T10:16:38.449Z,10.27
2022-09-20T10:19:13.539Z,10.23
2022-09-20T10:21:49.244Z,10.20
2022-09-20T10:24:30.202Z,10.15
2022-09-20T10:27:11.444Z,10.18
2022-09-20T10:29:53.013Z,10.08
2022-09-20T10:32:28.792Z,9.99
2022-09-20T10:35:23.967Z,10.00
2022-09-20T10:38:12.551Z,9.98
2022-09-20T10:41:03.399Z,9.99
2022-09-20T10:43:42.893Z,10.08
2022-09-20T10:46:33.531Z,10.24
2022-09-20T10:49:10.111Z,10.37
2022-09-20T10:51:44.853Z,10.35
2022-09-20T10:54:23.811Z,10.36
2022-09-20T10:56:53.493Z,10.40
2022-09-20T10:59:28.495Z,10.30
2022-09-20T11:02:10.472Z,10.28
2022-09-20T11:04:56.015Z,10.40
2022-09-20T11:07:34.620Z,10.48
2022-09-20T11:10:06.283Z,10.57
2022-09-20T11:12:38.281Z,10.70
2022-09-20T11:15:10.145Z,10.84
2022-09-20T11:17:41.124Z,11.22
2022-09-20T11:20:16.609Z,11.34
2022-09-20T11:22:49.320Z,11.41
2022-09-20T11:25:21.577Z,11.65
2022-09-20T11:27:53.767Z,11.76
2022-09-20T11:30:23.017Z,11.62
2022-09-20T11:32:53.570Z,11.62
2022-09-20T11:35:30.254Z,11.58
2022-09-20T11:38:06.183Z,11.70
2022-09-20T11:40:35.863Z,12.01
2022-09-20T11:43:06.426Z,12.02
2022-09-20T11:45:35.215Z,12.15
2022-09-20T11:48:05.240Z,12.07
2022-09-20T11:50:48.614Z,11.83
2022-09-20T11:53:27.040Z,11.86
2022-09-20T11:55:59.746Z,12.06
2022-09-20T11:58:27.842Z,11.84
2022-09-20T12:00:57.320Z,12.11
2022-09-20T12:03:34.429Z,12.33
2022-09-20T12:06:03.848Z,12.37
2022-09-20T12:08:35.404Z,12.49
2022-09-20T12:11:05.201Z,12.59
2022-09-20T12:13:35.323Z,12.65
2022-09-20T12:16:07.139Z,12.78
2022-09-20T12:18:47.439Z,12.33
2022-09-20T12:21:20.756Z,12.31
2022-09-20T12:24:19.681Z,12.25
2022-09-20T12:26:48.675Z,12.63
2022-09-20T12:29:55.858Z,12.68
2022-09-20T12:32:56.405Z,13.04
2022-09-20T12:36:01.190Z,13.20
2022-09-20T12:38:38.542Z,13.27
2022-09-20T12:41:10.936Z,13.74
2022-09-20T12:43:48.597Z,13.84
2022-09-20T12:46:24.891Z,13.76
2022-09-20T12:48:52.917Z,13.57
2022-09-20T12:51:43.240Z,13.72
2022-09-20T12:54:12.287Z,13.95
2022-09-20T12:56:43.195Z,14.33
2022-09-20T12:59:21.988Z,14.43
2022-09-20T13:02:47.570Z,14.30
2022-09-20T13:05:36.274Z,14.43
2022-09-20T13:08:11.126Z,14.17
2022-09-20T13:10:42.948Z,14.22
2022-09-20T13:13:31.963Z,13.87
2022-09-20T13:16:01.267Z,13.83
2022-09-20T13:18:29.348Z,14.02
2022-09-20T13:20:58.078Z,13.94
2022-09-20T13:23:28.675Z,14.03
2022-09-20T13:25:58.585Z,13.96
2022-09-20T13:28:33.045Z,13.36
2022-09-20T13:31:28.419Z,13.60
2022-09-20T13:33:56.186Z,13.57
2022-09-20T13:36:28.639Z,13.32
2022-09-20T13:38:57.476Z,13.20
2022-09-20T13:41:29.176Z,13.41
2022-09-20T13:43:58.172Z,13.52
2022-09-20T13:46:30.567Z,13.62
2022-09-20T13:49:08.469Z,13.59
2022-09-20T13:51:36.699Z,13.33
2022-09-20T13:54:19.342Z,13.47
2022-09-20T13:56:47.052Z,13.25
2022-09-20T13:59:19.298Z,13.26
2022-09-20T14:01:50.821Z,13.42
2022-09-20T14:04:20.124Z,13.73
2022-09-20T14:06:47.815Z,13.79
2022-09-20T14:09:20.915Z,13.85
2022-09-20T14:11:48.537Z,13.52
2022-09-20T14:14:21.410Z,13.69
2022-09-20T14:16:50.755Z,13.77
2022-09-20T14:19:20.881Z,13.68
2022-09-20T14:21:49.025Z,13.52
2022-09-20T14:24:31.855Z,13.56
2022-09-20T14:27:06.511Z,13.42
2022-09-20T14:29:41.192Z,13.54
2022-09-20T14:32:15.838Z,13.57
2022-09-20T14:34:43.886Z,13.63
2022-09-20T14:37:15.234Z,13.64
2022-09-20T14:39:48.638Z,13.38
2022-09-20T14:42:20.966Z,13.55
2022-09-20T14:44:53.142Z,13.49
2022-09-20T14:47:27.807Z,13.48
2022-09-20T14:49:55.592Z,13.53
2022-09-20T14:52:32.225Z,13.68
2022-09-20T14:55:01.417Z,13.66
2022-09-20T14:57:29.510Z,13.67
2022-09-20T14:59:59.156Z,13.39
2022-09-20T15:02:27.360Z,13.22
2022-09-20T15:04:57.308Z,13.36
2022-09-20T15:07:24.885Z,13.36
2022-09-20T15:09:52.510Z,13.29
2022-09-20T15:12:21.477Z,13.14
2022-09-20T15:14:49.697Z,13.10
2022-09-20T15:17:19.941Z,13.10
2022-09-20T15:19:47.585Z,13.05
2022-09-20T15:22:15.886Z,13.00
2022-09-20T15:24:44.126Z,13.00
2022-09-20T15:27:12.818Z,12.86
2022-09-20T15:29:40.453Z,12.76
2022-09-20T15:32:09.924Z,12.82
2022-09-20T15:34:39.140Z,12.84
2022-09-20T15:37:06.714Z,12.85
2022-09-20T15:39:34.364Z,12.78
2022-09-20T15:42:02.504Z,12.73
2022-09-20T15:44:30.076Z,12.86
2022-09-20T15:46:57.760Z,12.71
2022-09-20T15:49:25.307Z,12.72
2022-09-20T15:51:54.260Z,12.71
2022-09-20T15:54:21.981Z,12.76
2022-09-20T15:56:51.876Z,12.65
2022-09-20T15:59:23.083Z,12.55
2022-09-20T16:01:51.674Z,12.52
2022-09-20T16:04:20.605Z,12.60
2022-09-20T16:06:49.899Z,12.44
2022-09-20T16:09:19.153Z,12.40
2022-09-20T16:11:47.202Z,12.36
2022-09-20T16:14:14.916Z,12.29
2022-09-20T16:16:42.598Z,12.17
2022-09-20T16:19:20.674Z,12.14
2022-09-20T16:21:53.766Z,12.04
2022-09-20T16:24:26.920Z,12.01
2022-09-20T16:26:54.596Z,11.91
2022-09-20T16:29:23.437Z,11.94
2022-09-20T16:31:51.278Z,11.92
2022-09-20T16:34:20.208Z,11.90
2022-09-20T16:36:48.947Z,11.91
2022-09-20T16:39:17.763Z,11.73
2022-09-20T16:41:48.167Z,11.77
2022-09-20T16:44:16.554Z,11.74
2022-09-20T16:46:45.182Z,11.74
2022-09-20T16:49:13.471Z,11.75
2022-09-20T16:51:43.030Z,11.68
2022-09-20T16:54:13.148Z,11.61
2022-09-20T16:56:42.150Z,11.60
2022-09-20T16:59:11.267Z,11.57
2022-09-20T17:01:39.906Z,11.59
2022-09-20T17:04:08.341Z,11.49
2022-09-20T17:06:37.309Z,11.54
2022-09-20T17:09:06.023Z,11.45
2022-09-20T17:11:35.881Z,11.44
2022-09-20T17:14:03.908Z,11.47
2022-09-20T17:16:34.959Z,11.51
2022-09-20T17:19:04.346Z,11.45
2022-09-20T17:22:13.904Z,11.46
2022-09-20T17:24:41.540Z,11.44
2022-09-20T17:27:09.386Z,11.39
2022-09-20T17:29:36.947Z,11.37
2022-09-20T17:32:06.161Z,11.38
2022-09-20T17:34:34.185Z,11.42
2022-09-20T17:37:03.429Z,11.42
2022-09-20T17:39:31.001Z,11.36
2022-09-20T17:41:58.769Z,11.28
2022-09-20T17:44:26.395Z,11.18
2022-09-20T17:46:54.313Z,11.02
2022-09-20T17:49:24.228Z,10.97
2022-09-20T17:51:52.842Z,10.84
2022-09-20T17:54:21.105Z,10.94
2022-09-20T17:56:50.156Z,10.94
2022-09-20T17:59:19.143Z,10.97
2022-09-20T18:01:48.478Z,10.99
2022-09-20T18:04:16.153Z,10.98
2022-09-20T18:06:47.176Z,10.95
2022-09-20T18:09:16.073Z,10.98
2022-09-20T18:11:45.350Z,10.95
2022-09-20T18:14:13.430Z,10.92
2022-09-20T18:16:41.220Z,10.91
2022-09-20T18:19:09.256Z,10.91
2022-09-20T18:21:38.167Z,10.79
2022-09-20T18:24:08.663Z,10.75
2022-09-20T18:26:37.062Z,10.74
2022-09-20T18:29:06.395Z,10.67
2022-09-20T18:31:35.950Z,10.65
2022-09-20T18:34:04.853Z,10.64
2022-09-20T18:36:34.102Z,10.50
2022-09-20T18:39:01.695Z,10.47
2022-09-20T18:41:33.231Z,10.44
2022-09-20T18:44:01.801Z,10.42
2022-09-20T18:46:30.777Z,10.43
2022-09-20T18:49:02.085Z,10.42
2022-09-20T18:51:29.910Z,10.43
2022-09-20T18:53:57.996Z,10.32
2022-09-20T18:56:27.308Z,10.33
2022-09-20T18:58:58.561Z,10.36
2022-09-20T19:01:48.626Z,10.32
2022-09-20T19:04:46.070Z,10.18
2022-09-20T19:07:25.256Z,10.17
2022-09-20T19:09:57.515Z,10.18
2022-09-20T19:12:26.886Z,10.10
2022-09-20T19:15:06.113Z,10.02
2022-09-20T19:17:47.922Z,10.00
2022-09-20T19:20:23.104Z,10.01
2022-09-20T19:23:00.809Z,10.04
2022-09-20T19:25:34.508Z,10.08
2022-09-20T19:28:02.456Z,10.09
2022-09-20T19:30:32.555Z,10.09
2022-09-20T19:33:02.682Z,10.11
2022-09-20T19:35:34.772Z,10.13
2022-09-20T19:38:05.741Z,10.15
2022-09-20T19:40:42.081Z,10.12
2022-09-20T19:43:23.741Z,10.14
2022-09-20T19:45:58.703Z,10.11
2022-09-20T19:48:31.064Z,9.99
2022-09-20T19:51:00.083Z,9.95
2022-09-20T19:53:28.723Z,9.84
2022-09-20T19:56:00.730Z,9.74
2022-09-20T19:58:28.992Z,9.69
2022-09-20T20:00:59.003Z,9.68
2022-09-20T20:03:28.655Z,9.68
2022-09-20T20:06:05.707Z,9.67
2022-09-20T20:08:39.595Z,9.70
2022-09-20T20:11:13.236Z,9.70
2022-09-20T20:14:01.956Z,9.69
2022-09-20T20:16:33.840Z,9.73
2022-09-20T20:19:12.261Z,9.77
2022-09-20T20:21:47.261Z,9.76
2022-09-20T20:24:22.862Z,9.77
2022-09-20T20:26:50.499Z,9.70
2022-09-20T20:29:18.137Z,9.73
2022-09-20T20:31:47.156Z,9.76
2022-09-20T20:34:16.285Z,9.77
2022-09-20T20:36:44.572Z,9.75
2022-09-20T20:39:12.544Z,9.75
2022-09-20T20:41:41.101Z,9.75
2022-09-20T20:44:08.672Z,9.78
2022-09-20T20:46:37.134Z,9.78
2022-09-20T20:49:06.102Z,9.78
2022-09-20T20:51:33.707Z,9.80
2022-09-20T20:54:01.609Z,9.81
2022-09-20T20:56:30.434Z,9.81
2022-09-20T20:59:00.666Z,9.81
2022-09-20T21:01:30.059Z,9.74
2022-09-20T21:03:58.503Z,9.74
2022-09-20T21:06:29.556Z,9.74
2022-09-20T21:08:57.340Z,9.76
2022-09-20T21:11:27.365Z,9.77
2022-09-20T21:13:57.075Z,9.79
2022-09-20T21:16:26.172Z,9.79
2022-09-20T21:18:53.824Z,9.79
2022-09-20T21:21:23.061Z,9.82
2022-09-20T21:23:53.324Z,9.85
2022-09-20T21:26:21.590Z,9.85
2022-09-20T21:28:52.031Z,9.84
2022-09-20T21:31:20.851Z,9.77
2022-09-20T21:33:48.631Z,9.76
2022-09-20T21:36:18.206Z,9.70
2022-09-20T21:38:46.253Z,9.60
2022-09-20T21:41:17.708Z,9.51
2022-09-20T21:43:46.544Z,9.47
2022-09-20T21:46:15.552Z,9.42
2022-09-20T21:48:43.257Z,9.33
2022-09-20T21:51:12.085Z,9.26
2022-09-20T21:53:40.251Z,9.15
2022-09-20T21:56:09.803Z,9.12
2022-09-20T21:58:40.081Z,9.08
2022-09-20T22:01:11.408Z,9.00
2022-09-20T22:03:40.827Z,8.99
2022-09-20T22:06:10.418Z,9.03
2022-09-20T22:08:39.065Z,9.06
2022-09-20T22:11:10.232Z,9.04
2022-09-20T22:13:43.653Z,9.01
2022-09-20T22:16:12.261Z,8.96
2022-09-20T22:18:41.405Z,8.79
2022-09-20T22:21:11.919Z,8.78
2022-09-20T22:23:39.852Z,8.73
2022-09-20T22:26:10.484Z,8.67
2022-09-20T22:28:38.485Z,8.66
2022-09-20T22:31:09.312Z,8.61
2022-09-20T22:33:41.355Z,8.41
2022-09-20T22:36:09.777Z,8.42
2022-09-20T22:38:37.601Z,8.34
2022-09-20T22:41:06.104Z,8.34
2022-09-20T22:43:34.703Z,8.26
2022-09-20T22:46:03.701Z,8.21
2022-09-20T22:48:33.396Z,8.20
2022-09-20T22:51:01.670Z,8.20
2022-09-20T22:53:29.989Z,8.16
2022-09-20T22:56:03.974Z,8.16
2022-09-20T22:58:32.760Z,8.04
2022-09-20T23:01:05.813Z,8.02
2022-09-20T23:03:34.792Z,7.94
2022-09-20T23:06:03.064Z,7.95
2022-09-20T23:08:33.151Z,7.93
2022-09-20T23:11:02.250Z,7.95
2022-09-20T23:13:29.959Z,7.91
2022-09-20T23:15:57.721Z,7.90
2022-09-20T23:18:25.601Z,7.90
2022-09-20T23:21:03.358Z,7.93
2022-09-20T23:23:31.330Z,7.94
2022-09-20T23:26:07.343Z,7.84
2022-09-20T23:28:35.341Z,7.67
2022-09-20T23:31:04.783Z,7.57
2022-09-20T23:33:32.778Z,7.56
2022-09-20T23:36:00.520Z,7.61
2022-09-20T23:38:29.431Z,7.62
2022-09-20T23:40:57.635Z,7.56
2022-09-20T23:43:25.191Z,7.40
2022-09-20T23:45:53.253Z,7.36
2022-09-20T23:48:20.830Z,7.31
2022-09-20T23:50:48.444Z,7.27
2022-09-20T23:53:15.997Z,7.25
2022-09-20T23:55:45.171Z,7.18
2022-09-20T23:58:12.791Z,7.12
